Time;durP1;ratioP1;P1;durP2;ratioP2;P2;SDS_P1;SDS_P2;PMS_P1;PMS_P2;Temp;Humidity;BMP_temperature;BMP_pressure;BME280_temperature;BME280_humidity;BME280_pressure;Samples;Min_cycle;Max_cycle;Signal;HPM_P1;HPM_P2
2023/05/31 11:53:13;;;;;;;6.70;1.80;;;;;;;;;;5486375;23;20555;-81
2023/05/31 11:55:41;;;;;;;5.03;1.90;;;;;;;;;;4948063;29;20463;-81
2023/05/31 11:58:08;;;;;;;11.73;2.00;;;;;;;;;;4945011;29;20543;-80
2023/05/31 12:00:36;;;;;;;8.43;1.97;;;;;;;;;;4940308;29;20450;-80
2023/05/31 12:03:05;;;;;;;5.10;1.50;;;;;;;;;;4940546;29;20463;-80
2023/05/31 12:05:32;;;;;;;5.20;1.63;;;;;;;;;;4945986;29;20531;-80
2023/05/31 12:08:00;;;;;;;5.37;1.60;;;;;;;;;;4943461;28;20459;-82
2023/05/31 12:10:33;;;;;;;11.07;1.50;;;;;;;;;;4943043;29;20527;-82
2023/05/31 12:13:01;;;;;;;4.47;1.50;;;;;;;;;;4944576;28;20460;-82
2023/05/31 12:15:34;;;;;;;6.63;1.10;;;;;;;;;;4946698;28;20463;-80
2023/05/31 12:18:04;;;;;;;5.93;1.60;;;;;;;;;;4944452;29;20499;-81
2023/05/31 12:20:33;;;;;;;4.67;1.83;;;;;;;;;;4942328;29;20711;-80
2023/05/31 12:23:13;;;;;;;12.10;6.30;;;;;;;;;;4950727;29;20481;-82
2023/05/31 12:25:48;;;;;;;9.00;3.30;;;;;;;;;;4946620;29;20463;-81
2023/05/31 12:28:17;;;;;;;4.40;1.27;;;;;;;;;;4944524;29;20482;-79
2023/05/31 12:30:46;;;;;;;5.47;1.50;;;;;;;;;;4945714;29;20459;-79
2023/05/31 12:33:13;;;;;;;4.80;2.07;;;;;;;;;;4944183;29;20479;-81
2023/05/31 12:35:42;;;;;;;5.23;1.30;;;;;;;;;;4945642;29;20479;-79
2023/05/31 12:38:10;;;;;;;4.60;1.03;;;;;;;;;;4956817;29;20483;-77
2023/05/31 12:40:43;;;;;;;4.60;1.60;;;;;;;;;;4951247;28;20472;-80
2023/05/31 12:43:22;;;;;;;5.77;1.13;;;;;;;;;;4937100;29;20518;-80
2023/05/31 12:45:58;;;;;;;3.50;1.20;;;;;;;;;;4942914;29;20462;-81
2023/05/31 12:48:42;;;;;;;3.40;1.07;;;;;;;;;;4946552;28;20522;-81
2023/05/31 12:51:09;;;;;;;4.97;1.70;;;;;;;;;;4937533;29;20558;-81
2023/05/31 12:53:40;;;;;;;3.63;1.20;;;;;;;;;;4944922;29;20468;-79
2023/05/31 12:56:08;;;;;;;3.63;1.20;;;;;;;;;;4942978;29;20460;-79
2023/05/31 12:58:36;;;;;;;5.73;1.37;;;;;;;;;;4943954;29;20602;-82
2023/05/31 13:01:04;;;;;;;4.50;1.50;;;;;;;;;;4955639;29;20492;-82
2023/05/31 13:03:31;;;;;;;4.83;1.50;;;;;;;;;;4963827;29;20516;-83
2023/05/31 13:05:59;;;;;;;5.53;1.47;;;;;;;;;;4950433;29;20464;-82
2023/05/31 13:08:26;;;;;;;7.33;1.60;;;;;;;;;;4949195;28;20475;-81
2023/05/31 13:10:55;;;;;;;9.90;2.27;;;;;;;;;;4940766;29;20502;-80
2023/05/31 13:13:30;;;;;;;8.67;1.57;;;;;;;;;;4942197;29;20483;-81
2023/05/31 13:16:05;;;;;;;7.20;1.77;;;;;;;;;;4938270;29;20588;-80
2023/05/31 13:18:34;;;;;;;3.83;1.10;;;;;;;;;;4943833;29;20523;-80
2023/05/31 13:21:02;;;;;;;7.20;2.10;;;;;;;;;;4941508;29;20466;-79
2023/05/31 13:23:29;;;;;;;4.50;1.20;;;;;;;;;;4946274;29;20452;-79
2023/05/31 13:25:57;;;;;;;5.90;1.20;;;;;;;;;;4947002;29;20471;-82
2023/05/31 13:28:25;;;;;;;3.60;1.17;;;;;;;;;;4943706;29;20467;-80
2023/05/31 13:30:53;;;;;;;18.40;4.17;;;;;;;;;;4945429;29;20490;-80
2023/05/31 13:33:22;;;;;;;8.97;1.47;;;;;;;;;;4945919;29;20841;-79
2023/05/31 13:35:49;;;;;;;3.90;1.50;;;;;;;;;;4926424;29;20448;-80
2023/05/31 13:38:17;;;;;;;7.10;1.60;;;;;;;;;;4929074;29;20461;-81
2023/05/31 13:40:45;;;;;;;6.67;1.43;;;;;;;;;;4934758;29;20466;-79
2023/05/31 13:43:12;;;;;;;4.37;1.10;;;;;;;;;;4944935;28;20459;-80
2023/05/31 13:45:39;;;;;;;3.80;0.80;;;;;;;;;;4948616;28;20530;-81
2023/05/31 13:48:06;;;;;;;4.20;1.33;;;;;;;;;;4953880;28;20462;-80
2023/05/31 13:50:35;;;;;;;5.60;1.20;;;;;;;;;;4956179;29;20893;-81
2023/05/31 13:53:03;;;;;;;5.50;1.50;;;;;;;;;;4942325;29;20987;-78
2023/05/31 13:55:33;;;;;;;7.37;1.73;;;;;;;;;;4941330;29;20491;-82
2023/05/31 13:58:00;;;;;;;7.90;1.60;;;;;;;;;;4948354;29;20543;-80
2023/05/31 14:00:28;;;;;;;3.50;1.10;;;;;;;;;;4947780;29;20562;-80
2023/05/31 14:03:11;;;;;;;5.43;1.50;;;;;;;;;;4935571;29;20479;-81
2023/05/31 14:05:43;;;;;;;4.60;1.27;;;;;;;;;;4922836;29;20463;-80
2023/05/31 14:10:55;;;;;;;6.33;1.20;;;;;;;;;;4960815;29;20473;-81
2023/05/31 14:13:29;;;;;;;4.93;1.57;;;;;;;;;;4925100;29;20467;-81
2023/05/31 14:15:58;;;;;;;8.53;1.80;;;;;;;;;;4944067;28;20478;-81
2023/05/31 14:18:26;;;;;;;3.80;1.07;;;;;;;;;;4947225;29;20458;-81
2023/05/31 14:21:01;;;;;;;4.37;1.50;;;;;;;;;;4947214;29;20475;-80
2023/05/31 14:23:29;;;;;;;5.70;1.40;;;;;;;;;;4949437;29;20567;-80
2023/05/31 14:25:56;;;;;;;3.67;1.00;;;;;;;;;;4947191;29;20459;-79
2023/05/31 14:28:24;;;;;;;4.43;1.10;;;;;;;;;;4950966;28;20451;-81
2023/05/31 14:30:55;;;;;;;7.97;1.50;;;;;;;;;;4950570;29;20450;-80
2023/05/31 14:33:27;;;;;;;7.53;1.43;;;;;;;;;;4958526;29;20502;-81
2023/05/31 14:35:56;;;;;;;4.47;1.30;;;;;;;;;;4968128;29;20466;-79
2023/05/31 14:38:25;;;;;;;4.47;1.43;;;;;;;;;;4966514;29;20458;-81
2023/05/31 14:40:53;;;;;;;4.60;1.10;;;;;;;;;;4955516;29;20948;-80
2023/05/31 14:43:20;;;;;;;6.30;1.80;;;;;;;;;;4967673;28;20489;-80
2023/05/31 14:45:49;;;;;;;4.13;1.20;;;;;;;;;;4973057;28;20470;-79
2023/05/31 14:48:16;;;;;;;11.37;6.43;;;;;;;;;;4963424;29;20858;-80
2023/05/31 14:50:47;;;;;;;4.90;2.20;;;;;;;;;;4956631;28;20462;-81
2023/05/31 14:53:16;;;;;;;8.70;2.90;;;;;;;;;;4963427;28;20454;-80
2023/05/31 14:55:43;;;;;;;3.07;1.20;;;;;;;;;;4963762;29;20443;-82
2023/05/31 14:58:12;;;;;;;4.70;0.90;;;;;;;;;;4967608;29;20450;-80
2023/05/31 15:00:42;;;;;;;3.80;1.17;;;;;;;;;;4964270;29;21113;-79
2023/05/31 15:03:11;;;;;;;6.40;1.80;;;;;;;;;;4967183;29;20476;-81
2023/05/31 15:05:46;;;;;;;3.97;1.07;;;;;;;;;;4964578;29;20490;-80
2023/05/31 15:08:14;;;;;;;7.13;1.37;;;;;;;;;;4968268;28;20458;-79
2023/05/31 15:10:44;;;;;;;3.83;1.20;;;;;;;;;;4965163;28;20486;-80
2023/05/31 15:13:12;;;;;;;5.53;1.17;;;;;;;;;;4967529;28;20474;-80
2023/05/31 15:15:43;;;;;;;3.77;1.00;;;;;;;;;;4967135;29;20466;-84
2023/05/31 15:18:11;;;;;;;5.27;1.03;;;;;;;;;;4960626;29;20481;-82
2023/05/31 15:20:39;;;;;;;3.13;1.03;;;;;;;;;;4966184;28;20494;-81
2023/05/31 15:23:06;;;;;;;5.13;1.20;;;;;;;;;;4965172;29;20465;-81
2023/05/31 15:25:36;;;;;;;4.07;1.20;;;;;;;;;;4967080;29;20518;-80
2023/05/31 15:28:05;;;;;;;4.70;1.07;;;;;;;;;;4966452;29;20466;-81
2023/05/31 15:30:32;;;;;;;4.30;0.87;;;;;;;;;;4946839;29;20468;-81
2023/05/31 15:33:11;;;;;;;6.77;3.97;;;;;;;;;;4947307;29;20462;-82
2023/05/31 15:35:43;;;;;;;3.73;0.90;;;;;;;;;;4958902;28;20474;-81
2023/05/31 15:38:10;;;;;;;3.47;0.93;;;;;;;;;;4960145;29;20470;-83
2023/05/31 15:40:40;;;;;;;5.23;1.40;;;;;;;;;;4963164;29;20501;-79
2023/05/31 15:43:09;;;;;;;3.13;1.07;;;;;;;;;;4963084;28;20463;-79
2023/05/31 15:45:50;;;;;;;4.93;1.10;;;;;;;;;;4962731;28;20687;-82
2023/05/31 15:48:19;;;;;;;7.00;1.27;;;;;;;;;;4965767;28;20549;-80
2023/05/31 15:50:50;;;;;;;4.17;1.40;;;;;;;;;;4967335;28;20462;-80
2023/05/31 15:53:18;;;;;;;4.63;1.13;;;;;;;;;;4970421;28;20530;-81
2023/05/31 15:55:49;;;;;;;3.77;1.10;;;;;;;;;;4962739;28;21727;-79
2023/05/31 15:58:25;;;;;;;7.07;1.40;;;;;;;;;;4958840;29;20476;-79
2023/05/31 16:00:58;;;;;;;6.70;1.23;;;;;;;;;;4971508;28;20492;-79
2023/05/31 16:07:00;;;;;;;3.10;1.03;;;;;;;;;;4336318;27;21846497;-80
2023/05/31 16:09:35;;;;;;;7.10;1.73;;;;;;;;;;5105811;28;20263;-80
2023/05/31 16:12:03;;;;;;;3.70;1.13;;;;;;;;;;5118554;28;20443;-81
2023/05/31 16:14:33;;;;;;;9.33;2.20;;;;;;;;;;5106266;28;20456;-80
2023/05/31 16:17:00;;;;;;;5.70;1.50;;;;;;;;;;5109939;28;20448;-80
2023/05/31 16:19:28;;;;;;;3.77;1.30;;;;;;;;;;5105742;28;20456;-81
2023/05/31 16:22:05;;;;;;;3.03;0.90;;;;;;;;;;5105158;28;21077;-81
2023/05/31 16:24:33;;;;;;;4.40;1.30;;;;;;;;;;5102078;28;20589;-80
2023/05/31 16:27:02;;;;;;;4.03;1.00;;;;;;;;;;5106340;28;20458;-80
2023/05/31 16:29:31;;;;;;;5.57;1.50;;;;;;;;;;5105239;28;20479;-80
2023/05/31 16:31:58;;;;;;;5.63;1.30;;;;;;;;;;5108725;28;20964;-79
2023/05/31 16:34:26;;;;;;;4.90;2.03;;;;;;;;;;5119938;28;20493;-81
2023/05/31 16:36:54;;;;;;;4.70;1.20;;;;;;;;;;5115627;28;20439;-79
2023/05/31 16:39:41;;;;;;;4.20;1.40;;;;;;;;;;5103437;28;20669;-81
2023/05/31 16:42:10;;;;;;;6.73;1.30;;;;;;;;;;5092949;28;20486;-78
2023/05/31 16:44:45;;;;;;;7.03;2.40;;;;;;;;;;5102377;22;20496;-77
2023/05/31 16:47:31;;;;;;;4.20;1.40;;;;;;;;;;5073494;28;20716;-74
2023/05/31 16:53:47;;;;;;;5.23;2.80;;;;;;;;;;5093331;28;20494;-74
2023/05/31 16:56:21;;;;;;;7.20;1.70;;;;;;;;;;5073972;28;20461;-72
2023/05/31 16:58:51;;;;;;;3.97;1.60;;;;;;;;;;5070120;28;20452;-73
2023/05/31 17:01:42;;;;;;;7.93;3.33;;;;;;;;;;5085978;28;20463;-73
2023/05/31 17:04:42;;;;;;;7.63;4.40;;;;;;;;;;5088710;28;20501;-72
2023/05/31 17:07:27;;;;;;;6.60;2.00;;;;;;;;;;5081547;28;20901;-74
2023/05/31 17:09:55;;;;;;;4.23;1.57;;;;;;;;;;5074415;28;20457;-73
2023/05/31 17:12:46;;;;;;;8.97;3.30;;;;;;;;;;5072909;28;20869;-73
2023/05/31 17:30:25;;;;;;;4.80;1.80;;;;;;;;;;5074041;23;20298;-80
2023/05/31 17:32:55;;;;;;;4.30;1.40;;;;;;;;;;5044049;28;20461;-80
2023/05/31 17:35:23;;;;;;;4.67;1.63;;;;;;;;;;5053058;28;20487;-82
2023/05/31 17:37:53;;;;;;;5.13;1.90;;;;;;;;;;5047375;28;20447;-82
2023/05/31 17:40:27;;;;;;;3.97;1.97;;;;;;;;;;5038942;28;20459;-82
2023/05/31 17:42:55;;;;;;;8.13;1.67;;;;;;;;;;5056293;28;20457;-81
2023/05/31 17:48:16;;;;;;;7.33;1.90;;;;;;;;;;1503515;26;20568;-72
2023/05/31 17:50:54;;;;;;;6.10;1.87;;;;;;;;;;5092852;28;20770;-72
2023/05/31 17:53:28;;;;;;;6.20;2.20;;;;;;;;;;5104737;28;20877;-72
2023/05/31 17:56:02;;;;;;;6.23;2.00;;;;;;;;;;5089421;28;20447;-71
2023/05/31 17:58:32;;;;;;;6.43;1.80;;;;;;;;;;5099013;28;20452;-72
2023/05/31 18:01:00;;;;;;;5.20;1.87;;;;;;;;;;5096463;28;20460;-72
2023/05/31 18:03:38;;;;;;;6.47;1.83;;;;;;;;;;5097225;28;20447;-74
2023/05/31 18:06:07;;;;;;;4.70;1.80;;;;;;;;;;5076891;28;20558;-73
2023/05/31 18:08:55;;;;;;;5.67;2.43;;;;;;;;;;5085053;28;20885;-73
2023/05/31 18:11:28;;;;;;;5.23;1.67;;;;;;;;;;5099170;28;20452;-74
2023/05/31 18:24:57;;;;;;;7.17;3.40;;;;;;;;;;5110187;28;20567;-74
2023/05/31 18:27:36;;;;;;;6.03;2.53;;;;;;;;;;5075827;28;20215;-72
2023/05/31 18:30:08;;;;;;;4.87;1.63;;;;;;;;;;5089518;28;20494;-72
2023/05/31 18:32:37;;;;;;;5.20;2.00;;;;;;;;;;5093676;28;20704;-71
2023/05/31 18:35:06;;;;;;;7.37;2.60;;;;;;;;;;5095510;28;20862;-71
2023/05/31 18:37:35;;;;;;;4.40;1.80;;;;;;;;;;5095338;28;20547;-70
2023/05/31 18:40:20;;;;;;;5.10;2.00;;;;;;;;;;5094754;28;20448;-70
2023/05/31 18:43:06;;;;;;;6.10;2.63;;;;;;;;;;5093599;28;20476;-71
2023/05/31 18:45:46;;;;;;;8.20;2.10;;;;;;;;;;5093081;28;20558;-72
2023/05/31 18:48:23;;;;;;;6.73;2.20;;;;;;;;;;5095908;28;20536;-72
2023/05/31 18:50:54;;;;;;;8.43;2.30;;;;;;;;;;5095939;28;20456;-70
2023/05/31 18:53:22;;;;;;;7.57;2.50;;;;;;;;;;5095904;28;20523;-71
2023/05/31 18:55:55;;;;;;;4.40;2.07;;;;;;;;;;5096154;28;20466;-71
2023/05/31 18:58:38;;;;;;;4.60;2.27;;;;;;;;;;5098264;28;20490;-71
2023/05/31 19:01:20;;;;;;;6.10;2.17;;;;;;;;;;5096445;28;20726;-71
2023/05/31 19:04:02;;;;;;;7.33;2.70;;;;;;;;;;5093206;28;20891;-71
2023/05/31 19:09:34;;;;;;;6.13;2.50;;;;;;;;;;5089859;28;20848;-71
2023/05/31 19:12:38;;;;;;;7.67;3.17;;;;;;;;;;5092446;28;20463;-71
2023/05/31 19:16:01;;;;;;;5.87;2.20;;;;;;;;;;5068274;28;20509;-70
2023/05/31 19:18:31;;;;;;;7.60;2.40;;;;;;;;;;5072020;28;20730;-71
2023/05/31 19:21:00;;;;;;;7.20;3.13;;;;;;;;;;5074911;28;20455;-71
2023/05/31 19:23:30;;;;;;;6.27;3.43;;;;;;;;;;5074083;28;20942;-71
2023/05/31 19:26:04;;;;;;;12.47;3.43;;;;;;;;;;5073035;28;20488;-71
2023/05/31 19:28:36;;;;;;;7.30;3.33;;;;;;;;;;5070337;28;20461;-71
2023/05/31 19:31:05;;;;;;;7.50;2.83;;;;;;;;;;5072772;28;20453;-71
2023/05/31 19:33:35;;;;;;;6.87;3.23;;;;;;;;;;5070054;28;20718;-71
2023/05/31 19:36:03;;;;;;;12.90;3.80;;;;;;;;;;5069671;28;21078;-70
2023/05/31 19:38:31;;;;;;;8.70;2.80;;;;;;;;;;5068497;28;20841;-71
2023/05/31 19:41:00;;;;;;;6.80;3.57;;;;;;;;;;5087063;22;20522;-81
2023/05/31 19:43:27;;;;;;;10.50;3.97;;;;;;;;;;5077847;28;20469;-81
2023/05/31 19:45:59;;;;;;;9.70;3.30;;;;;;;;;;5083728;28;20489;-81
2023/05/31 19:48:26;;;;;;;7.00;3.63;;;;;;;;;;5080789;28;20444;-81
2023/05/31 19:50:55;;;;;;;6.23;2.97;;;;;;;;;;5081124;28;20453;-81
2023/05/31 19:53:22;;;;;;;12.83;3.97;;;;;;;;;;5081984;28;20453;-83
2023/05/31 19:55:53;;;;;;;9.20;3.33;;;;;;;;;;5081516;28;20547;-83
2023/05/31 19:58:23;;;;;;;6.83;3.17;;;;;;;;;;5083949;28;20457;-82
2023/05/31 20:00:53;;;;;;;11.33;3.97;;;;;;;;;;5081038;28;20449;-82
2023/05/31 20:03:23;;;;;;;8.90;3.50;;;;;;;;;;5082922;28;20946;-82
2023/05/31 20:05:51;;;;;;;5.10;3.20;;;;;;;;;;5081214;28;20488;-81
2023/05/31 20:08:19;;;;;;;9.50;3.17;;;;;;;;;;5085068;28;20441;-82
2023/05/31 20:10:46;;;;;;;5.03;2.20;;;;;;;;;;5083243;28;20468;-81
2023/05/31 20:13:14;;;;;;;9.53;3.27;;;;;;;;;;5081827;28;20763;-81
2023/05/31 20:15:42;;;;;;;16.50;4.43;;;;;;;;;;5084617;28;20480;-81
2023/05/31 20:18:09;;;;;;;8.73;3.10;;;;;;;;;;5082771;28;20901;-81
2023/05/31 20:20:40;;;;;;;10.13;3.57;;;;;;;;;;5064691;28;20576;-82
2023/05/31 20:23:08;;;;;;;11.93;3.80;;;;;;;;;;5084526;28;20457;-81
2023/05/31 20:25:35;;;;;;;9.40;2.67;;;;;;;;;;5082188;28;20492;-79
2023/05/31 20:28:03;;;;;;;4.33;2.43;;;;;;;;;;5083879;28;20457;-80
2023/05/31 20:30:31;;;;;;;15.50;4.37;;;;;;;;;;5082058;28;20445;-79
2023/05/31 20:32:59;;;;;;;7.20;3.00;;;;;;;;;;5083651;28;20461;-79
2023/05/31 20:35:29;;;;;;;9.10;3.60;;;;;;;;;;5083363;28;20448;-79
2023/05/31 20:38:01;;;;;;;9.57;4.00;;;;;;;;;;5080114;28;20453;-80
2023/05/31 20:40:29;;;;;;;6.20;4.00;;;;;;;;;;5085130;28;20460;-80
2023/05/31 20:42:56;;;;;;;9.50;2.90;;;;;;;;;;5081889;28;20527;-81
2023/05/31 20:45:24;;;;;;;10.20;3.10;;;;;;;;;;5079178;28;20469;-83
2023/05/31 20:47:51;;;;;;;5.73;3.23;;;;;;;;;;5083696;28;20461;-80
2023/05/31 20:50:19;;;;;;;5.77;2.47;;;;;;;;;;5080038;28;20446;-80
2023/05/31 20:52:50;;;;;;;6.47;4.03;;;;;;;;;;5082761;28;20448;-80
2023/05/31 20:55:19;;;;;;;8.43;3.17;;;;;;;;;;5085334;28;20762;-82
2023/05/31 20:57:46;;;;;;;6.87;3.10;;;;;;;;;;5082978;28;20719;-83
2023/05/31 21:00:18;;;;;;;12.10;3.03;;;;;;;;;;5082603;28;20465;-80
2023/05/31 21:02:46;;;;;;;12.80;5.00;;;;;;;;;;5087601;28;20571;-81
2023/05/31 21:05:13;;;;;;;7.10;3.10;;;;;;;;;;5079050;28;20448;-83
2023/05/31 21:07:41;;;;;;;7.73;3.33;;;;;;;;;;5081643;28;20491;-82
2023/05/31 21:10:09;;;;;;;15.33;4.73;;;;;;;;;;5079506;28;20573;-82
2023/05/31 21:12:38;;;;;;;10.03;4.17;;;;;;;;;;5065187;28;20467;-81
2023/05/31 21:15:06;;;;;;;9.80;4.40;;;;;;;;;;5063592;28;20461;-80
2023/05/31 21:17:35;;;;;;;6.90;3.73;;;;;;;;;;5061892;28;20438;-81
2023/05/31 21:20:05;;;;;;;9.40;4.37;;;;;;;;;;5065454;28;20517;-81
2023/05/31 21:22:32;;;;;;;9.10;4.63;;;;;;;;;;5062328;28;20489;-82
2023/05/31 21:25:00;;;;;;;11.83;4.57;;;;;;;;;;5064036;28;20464;-82
2023/05/31 21:27:27;;;;;;;11.00;5.30;;;;;;;;;;5058907;28;20547;-82
2023/05/31 21:29:56;;;;;;;8.73;3.60;;;;;;;;;;5058971;28;20462;-79
2023/05/31 21:32:23;;;;;;;7.90;4.30;;;;;;;;;;5060660;28;20454;-79
2023/05/31 21:40:58;;;;;;;7.77;4.17;;;;;;;;;;5066213;28;21058;-79
2023/05/31 21:43:26;;;;;;;10.50;4.00;;;;;;;;;;5075782;28;20592;-82
2023/05/31 21:45:55;;;;;;;11.03;5.23;;;;;;;;;;5077721;28;20460;-81
2023/05/31 21:48:23;;;;;;;11.30;6.30;;;;;;;;;;5081062;28;20679;-82
2023/05/31 21:50:50;;;;;;;11.13;5.33;;;;;;;;;;5077392;28;20855;-81
2023/05/31 21:53:18;;;;;;;11.73;5.47;;;;;;;;;;5533217;22;20499;-82
2023/05/31 21:55:45;;;;;;;9.77;5.93;;;;;;;;;;5079083;28;20460;-82
2023/05/31 21:58:12;;;;;;;9.53;5.07;;;;;;;;;;5080120;28;20466;-81
2023/05/31 22:00:40;;;;;;;11.87;4.50;;;;;;;;;;5080525;28;20495;-81
2023/05/31 22:03:09;;;;;;;8.13;4.30;;;;;;;;;;5080432;28;20492;-81
2023/05/31 22:05:36;;;;;;;18.30;4.40;;;;;;;;;;5081913;28;20461;-82
2023/05/31 22:08:04;;;;;;;8.30;4.80;;;;;;;;;;5084045;28;20481;-82
2023/05/31 22:10:31;;;;;;;9.77;3.40;;;;;;;;;;5085574;28;20498;-80
2023/05/31 22:12:59;;;;;;;17.57;4.60;;;;;;;;;;5082625;28;20777;-82
2023/05/31 22:15:26;;;;;;;7.50;4.47;;;;;;;;;;5083187;28;20515;-81
2023/05/31 22:17:57;;;;;;;7.80;3.83;;;;;;;;;;5080027;28;20453;-81
2023/05/31 22:20:27;;;;;;;6.07;3.40;;;;;;;;;;5082506;28;20437;-82
2023/05/31 22:22:55;;;;;;;6.30;3.83;;;;;;;;;;5082273;28;20524;-82
2023/05/31 22:25:23;;;;;;;7.80;3.70;;;;;;;;;;5083719;28;20457;-82
2023/05/31 22:27:51;;;;;;;7.17;3.73;;;;;;;;;;5081435;28;21030;-81
2023/05/31 22:30:18;;;;;;;13.47;4.20;;;;;;;;;;5082504;28;20461;-81
2023/05/31 22:32:45;;;;;;;10.57;4.30;;;;;;;;;;5084639;28;20460;-81
2023/05/31 22:35:13;;;;;;;8.10;4.93;;;;;;;;;;5083435;28;20452;-80
2023/05/31 22:37:42;;;;;;;11.47;3.60;;;;;;;;;;5084806;28;20449;-82
2023/05/31 22:40:10;;;;;;;12.50;5.23;;;;;;;;;;5082102;28;20765;-83
2023/05/31 22:42:37;;;;;;;8.73;4.00;;;;;;;;;;5080937;28;20453;-83
2023/05/31 22:45:06;;;;;;;16.20;5.50;;;;;;;;;;5081933;28;20449;-83
2023/05/31 22:47:33;;;;;;;8.77;4.90;;;;;;;;;;5082952;28;20935;-82
2023/05/31 22:50:06;;;;;;;9.20;5.90;;;;;;;;;;5082772;28;20560;-82
2023/05/31 22:52:36;;;;;;;6.57;4.90;;;;;;;;;;5083158;28;20507;-83
2023/05/31 22:55:06;;;;;;;9.77;5.07;;;;;;;;;;5081443;28;20480;-83
2023/05/31 22:57:40;;;;;;;16.63;6.03;;;;;;;;;;5084801;28;20471;-81
2023/05/31 23:00:10;;;;;;;11.80;5.60;;;;;;;;;;5082701;28;20448;-82
2023/05/31 23:02:39;;;;;;;9.90;5.43;;;;;;;;;;5082399;28;20459;-82
2023/05/31 23:05:07;;;;;;;14.43;6.33;;;;;;;;;;5078893;28;20475;-81
2023/05/31 23:07:35;;;;;;;14.60;6.70;;;;;;;;;;5082794;28;20574;-82
2023/05/31 23:10:07;;;;;;;19.37;6.70;;;;;;;;;;5079442;28;20493;-83
2023/05/31 23:12:35;;;;;;;11.20;6.80;;;;;;;;;;5084676;28;20534;-82
2023/05/31 23:15:04;;;;;;;14.17;7.70;;;;;;;;;;5082841;28;20461;-81
2023/05/31 23:17:34;;;;;;;10.50;5.20;;;;;;;;;;5087000;28;20457;-83
2023/05/31 23:20:11;;;;;;;11.20;6.50;;;;;;;;;;5082030;28;20461;-81
2023/05/31 23:22:38;;;;;;;12.70;7.17;;;;;;;;;;5085415;28;20958;-81
2023/05/31 23:25:07;;;;;;;14.27;8.60;;;;;;;;;;5081792;28;20477;-81
2023/05/31 23:27:36;;;;;;;15.00;9.07;;;;;;;;;;5083534;28;20485;-81
2023/05/31 23:30:07;;;;;;;18.53;8.93;;;;;;;;;;5083539;28;20495;-81
2023/05/31 23:32:35;;;;;;;12.67;7.50;;;;;;;;;;5080917;28;20461;-80
2023/05/31 23:35:03;;;;;;;11.67;7.63;;;;;;;;;;5085144;28;20750;-80
2023/05/31 23:37:31;;;;;;;10.90;7.60;;;;;;;;;;5082124;28;20441;-82
2023/05/31 23:39:59;;;;;;;15.13;7.20;;;;;;;;;;5085407;28;20487;-83
2023/05/31 23:42:33;;;;;;;13.10;7.13;;;;;;;;;;5084283;28;20457;-82
2023/05/31 23:45:02;;;;;;;12.50;7.40;;;;;;;;;;5137851;22;20499;-71
2023/05/31 23:47:36;;;;;;;14.47;8.10;;;;;;;;;;5081518;28;20481;-70
2023/05/31 23:50:11;;;;;;;21.37;8.97;;;;;;;;;;5078965;28;20449;-69
2023/05/31 23:52:42;;;;;;;15.63;8.33;;;;;;;;;;5078057;28;20811;-71
2023/05/31 23:55:20;;;;;;;12.20;6.83;;;;;;;;;;5080197;28;20441;-70
2023/05/31 23:57:51;;;;;;;14.40;9.80;;;;;;;;;;5080225;28;20883;-70
